Columbia — WYR2092 — position and weather

sailwx.info

Track history (hours):
 
Tides and Currents Weather Stations Pressure Air Temp Water Temp Dewpoint Dewpoint Depression Visibility Wind Speed Wind Dir Waves Ship Positions

Columbia

Owner: ALASKA, STATE OF, ANCHORAGE, AK. More information available from US FCC via Universal Licensing System and Coast Guard Vessel Documentation Center.

Last reported at 2019-May-19 12:55 UTC. Time now 2019-May-20 17:03 UTC.
Position N 54°51' W 131°00'.

Type: Passenger vessel. MMSI: 367144000.

Date/timePositionNaut miles runAvg speedWind from/ knotsBaromVisibWave heightAir tempDewpointWater temp
2019-May-19 12:55N 54°51' W 131°00'715.6
2019-May-19 12:29N 54°45' W 130°55'816.0
2019-May-19 12:00N 54°39' W 130°46'815.5
2019-May-19 11:30N 54°33' W 130°39'816.0
2019-May-19 11:00N 54°25' W 130°37'815.8
2019-May-19 10:30N 54°17' W 130°34'511.0
2019-May-19 10:00N 54°13' W 130°29'816.4
2019-May-19 09:31N 54°06' W 130°21'815.8
2019-May-19 09:00N 53°59' W 130°13'815.4
2019-May-19 08:30N 53°53' W 130°06'816.3
2019-May-19 08:00N 53°47' W 129°56'8715.2
2019-May-19 02:17N 52°38' W 128°28'616.7
2019-May-19 01:56N 52°32' W 128°28'716.2
2019-May-19 01:30N 52°25' W 128°29'816.7
2019-May-19 01:00N 52°17' W 128°34'3 6.4
2019-May-19 00:29N 52°15' W 128°30'916.5
2019-May-18 23:58N 52°15' W 128°16'712.1
2019-May-18 23:25N 52°10' W 128°08'3 7.3
2019-May-18 23:00N 52°07' W 128°08'811.3
2019-May-18 22:17N 52°04' W 127°56'415.6
2019-May-18 22:00N 51°59' W 127°56'816.1
2019-May-18 21:30N 51°51' W 127°57'816.1
2019-May-18 21:00N 51°43' W 127°55'816.1
2019-May-18 20:30N 51°35' W 127°53'816.1
2019-May-18 20:00N 51°28' W 127°50'815.9
2019-May-18 19:29N 51°20' W 127°52'715.1
2019-May-18 19:00N 51°12' W 127°52'815.8
2019-May-18 18:30N 51°06' W 127°44'815.9
2019-May-18 18:00N 51°00' W 127°36'815.2
2019-May-18 17:30N 50°56' W 127°26'815.3
2019-May-18 17:00N 50°51' W 127°16'816.4
2019-May-18 16:31N 50°47' W 127°05'1016.7
2019-May-18 15:56N 50°41' W 126°53'1217.4
2019-May-18 15:16N 50°32' W 126°41'717.8
2019-May-18 14:52N 50°30' W 126°30'2918.0
2019-May-18 13:16N 50°23' W 125°47'1017.7
2019-May-18 12:42N 50°21' W 125°31'417.8
2019-May-18 12:30N 50°20' W 125°26'816.6
2019-May-18 12:00N 50°12' W 125°22'713.5
2019-May-18 11:30N 50°06' W 125°18'510.9
2019-May-18 11:01N 50°02' W 125°13'510.2
2019-May-18 10:30N 49°57' W 125°09'714.9
2019-May-18 10:01N 49°52' W 125°01'714.8
2019-May-18 09:30N 49°47' W 124°52'714.7
2019-May-18 09:00N 49°42' W 124°44'714.7
2019-May-18 08:31N 49°37' W 124°37'714.9
2019-May-18 08:01N 49°31' W 124°28'714.9
2019-May-18 07:30N 49°26' W 124°20'714.8
2019-May-18 07:00N 49°24' W 124°09'714.8
2019-May-18 06:30N 49°23' W 123°58'714.7
2019-May-18 06:00N 49°20' W 123°47'714.9
2019-May-18 05:30N 49°15' W 123°39'714.9
2019-May-18 05:01N 49°10' W 123°31'714.9
2019-May-18 04:30N 49°05' W 123°22'714.9
2019-May-18 04:00N 48°60' W 123°14'714.9
2019-May-18 03:31N 48°55' W 123°06'714.9
2019-May-18 03:00N 48°50' W 122°57'714.7
2019-May-18 02:30N 48°46' W 122°48'714.4
2019-May-18 02:01N 48°40' W 122°41'610.2
2019-May-18 01:28N 48°41' W 122°33'3 0.6
2019-May-17 21:25N 48°43' W 122°31'0 0.0
2019-May-17 20:01N 48°43' W 122°31'0 0.0
2019-May-17 19:49N 48°43' W 122°31'0 0.0
2019-May-17 19:01N 48°43' W 122°31'0 0.0
2019-May-17 18:31N 48°43' W 122°31'0 0.0
2019-May-17 18:25N 48°43' W 122°31'0 0.0
2019-May-17 17:49N 48°43' W 122°31'0 0.0
2019-May-17 17:01N 48°43' W 122°31'0 0.0
2019-May-17 14:55N 48°43' W 122°31'1 2.2
2019-May-17 14:20N 48°43' W 122°32'515.3
2019-May-17 14:00N 48°38' W 122°35'714.4
2019-May-17 13:30N 48°42' W 122°44'815.7
2019-May-17 13:00N 48°47' W 122°53'816.4
2019-May-17 12:30N 48°52' W 123°03'816.5
2019-May-17 12:00N 48°57' W 123°13'816.5
2019-May-17 11:30N 49°02' W 123°22'816.6
2019-May-17 11:00N 49°08' W 123°31'816.6
2019-May-17 10:30N 49°15' W 123°39'816.7
2019-May-17 10:00N 49°21' W 123°48'816.5
2019-May-17 09:30N 49°23' W 123°60'816.6
2019-May-17 09:00N 49°25' W 124°12'916.0
2019-May-17 08:27N 49°29' W 124°25'716.6
2019-May-17 08:00N 49°34' W 124°33'816.6
2019-May-17 07:30N 49°40' W 124°42'816.6
2019-May-17 07:00N 49°46' W 124°51'816.6
2019-May-17 06:30N 49°52' W 124°60'816.7
2019-May-17 06:00N 49°58' W 125°09'714.1
2019-May-17 05:30N 50°04' W 125°15'713.5
2019-May-17 05:00N 50°09' W 125°21'612.4
2019-May-17 04:30N 50°15' W 125°23'1714.0
2019-May-17 03:18N 50°22' W 125°47'2515.5
2019-May-17 01:42N 50°30' W 126°24'516.7
2019-May-17 01:25N 50°30' W 126°31'714.4
2019-May-17 00:55N 50°34' W 126°41'815.7
2019-May-17 00:24N 50°39' W 126°50'616.5
2019-May-17 00:00N 50°43' W 126°58'816.5
2019-May-16 23:30N 50°49' W 127°09'1016.5
2019-May-16 22:53N 50°54' W 127°22'616.3
2019-May-16 22:30N 50°58' W 127°30'815.6
2019-May-16 22:00N 51°03' W 127°39'816.4
2019-May-16 21:30N 51°09' W 127°49'713.5
2019-May-16 21:00N 51°14' W 127°55'916.5
2019-May-16 20:29N 51°23' W 127°51'816.4
2019-May-16 20:00N 51°30' W 127°52'816.5
2019-May-16 19:31N 51°38' W 127°54'816.4
2019-May-16 19:01N 51°47' W 127°55'816.5
2019-May-16 18:31N 51°55' W 127°56'816.5
2019-May-16 18:00N 52°03' W 127°56'815.3
2019-May-16 17:31N 52°06' W 128°07'8 9.0
2019-May-16 16:36N 52°14' W 128°11'1216.4
2019-May-16 15:51N 52°16' W 128°30'9813.9
2019-May-16 08:47N 53°42' W 129°48'516.3
2019-May-16 08:30N 53°45' W 129°53'816.8
2019-May-16 08:00N 53°51' W 130°03'816.0
2019-May-16 07:30N 53°57' W 130°12'815.9
2019-May-16 07:00N 54°05' W 130°18'816.3
2019-May-16 06:30N 54°11' W 130°27'816.4
2019-May-16 06:00N 54°18' W 130°35'816.3
2019-May-16 05:30N 54°26' W 130°37'816.5
2019-May-16 05:00N 54°34' W 130°40'816.2
2019-May-16 04:30N 54°40' W 130°48'1016.5
2019-May-16 03:55N 54°48' W 130°58'  
2019-May-10 18:00N 58°06' W 134°54'   140 / 41013.7 8.9
Track history (hours):
 
Tides and Currents Weather Stations Pressure Air Temp Water Temp Dewpoint Dewpoint Depression Visibility Wind Speed Wind Dir Waves Ship Positions

Columbia

Owner: ALASKA, STATE OF, ANCHORAGE, AK. More information available from US FCC via Universal Licensing System and Coast Guard Vessel Documentation Center.

Last reported at 2019-May-19 12:55 UTC. Time now 2019-May-20 17:03 UTC.
Position N 54°51' W 131°00'.

Type: Passenger vessel. MMSI: 367144000.

Date/timePositionNaut miles runAvg speedWind from/ knotsBaromVisibWave heightAir tempDewpointWater temp
2019-May-19 12:55N 54°51' W 131°00'715.6
2019-May-19 12:29N 54°45' W 130°55'816.0
2019-May-19 12:00N 54°39' W 130°46'815.5
2019-May-19 11:30N 54°33' W 130°39'816.0
2019-May-19 11:00N 54°25' W 130°37'815.8
2019-May-19 10:30N 54°17' W 130°34'511.0
2019-May-19 10:00N 54°13' W 130°29'816.4
2019-May-19 09:31N 54°06' W 130°21'815.8
2019-May-19 09:00N 53°59' W 130°13'815.4
2019-May-19 08:30N 53°53' W 130°06'816.3
2019-May-19 08:00N 53°47' W 129°56'8715.2
2019-May-19 02:17N 52°38' W 128°28'616.7
2019-May-19 01:56N 52°32' W 128°28'716.2
2019-May-19 01:30N 52°25' W 128°29'816.7
2019-May-19 01:00N 52°17' W 128°34'3 6.4
2019-May-19 00:29N 52°15' W 128°30'916.5
2019-May-18 23:58N 52°15' W 128°16'712.1
2019-May-18 23:25N 52°10' W 128°08'3 7.3
2019-May-18 23:00N 52°07' W 128°08'811.3
2019-May-18 22:17N 52°04' W 127°56'415.6
2019-May-18 22:00N 51°59' W 127°56'816.1
2019-May-18 21:30N 51°51' W 127°57'816.1
2019-May-18 21:00N 51°43' W 127°55'816.1
2019-May-18 20:30N 51°35' W 127°53'816.1
2019-May-18 20:00N 51°28' W 127°50'815.9
2019-May-18 19:29N 51°20' W 127°52'715.1
2019-May-18 19:00N 51°12' W 127°52'815.8
2019-May-18 18:30N 51°06' W 127°44'815.9
2019-May-18 18:00N 51°00' W 127°36'815.2
2019-May-18 17:30N 50°56' W 127°26'815.3
2019-May-18 17:00N 50°51' W 127°16'816.4
2019-May-18 16:31N 50°47' W 127°05'1016.7
2019-May-18 15:56N 50°41' W 126°53'1217.4
2019-May-18 15:16N 50°32' W 126°41'717.8
2019-May-18 14:52N 50°30' W 126°30'2918.0
2019-May-18 13:16N 50°23' W 125°47'1017.7
2019-May-18 12:42N 50°21' W 125°31'417.8
2019-May-18 12:30N 50°20' W 125°26'816.6
2019-May-18 12:00N 50°12' W 125°22'713.5
2019-May-18 11:30N 50°06' W 125°18'510.9
2019-May-18 11:01N 50°02' W 125°13'510.2
2019-May-18 10:30N 49°57' W 125°09'714.9
2019-May-18 10:01N 49°52' W 125°01'714.8
2019-May-18 09:30N 49°47' W 124°52'714.7
2019-May-18 09:00N 49°42' W 124°44'714.7
2019-May-18 08:31N 49°37' W 124°37'714.9
2019-May-18 08:01N 49°31' W 124°28'714.9
2019-May-18 07:30N 49°26' W 124°20'714.8
2019-May-18 07:00N 49°24' W 124°09'714.8
2019-May-18 06:30N 49°23' W 123°58'714.7
2019-May-18 06:00N 49°20' W 123°47'714.9
2019-May-18 05:30N 49°15' W 123°39'714.9
2019-May-18 05:01N 49°10' W 123°31'714.9
2019-May-18 04:30N 49°05' W 123°22'714.9
2019-May-18 04:00N 48°60' W 123°14'714.9
2019-May-18 03:31N 48°55' W 123°06'714.9
2019-May-18 03:00N 48°50' W 122°57'714.7
2019-May-18 02:30N 48°46' W 122°48'714.4
2019-May-18 02:01N 48°40' W 122°41'610.2
2019-May-18 01:28N 48°41' W 122°33'3 0.6
2019-May-17 21:25N 48°43' W 122°31'0 0.0
2019-May-17 20:01N 48°43' W 122°31'0 0.0
2019-May-17 19:49N 48°43' W 122°31'0 0.0
2019-May-17 19:01N 48°43' W 122°31'0 0.0
2019-May-17 18:31N 48°43' W 122°31'0 0.0
2019-May-17 18:25N 48°43' W 122°31'0 0.0
2019-May-17 17:49N 48°43' W 122°31'0 0.0
2019-May-17 17:01N 48°43' W 122°31'0 0.0
2019-May-17 14:55N 48°43' W 122°31'1 2.2
2019-May-17 14:20N 48°43' W 122°32'515.3
2019-May-17 14:00N 48°38' W 122°35'714.4
2019-May-17 13:30N 48°42' W 122°44'815.7
2019-May-17 13:00N 48°47' W 122°53'816.4
2019-May-17 12:30N 48°52' W 123°03'816.5
2019-May-17 12:00N 48°57' W 123°13'816.5
2019-May-17 11:30N 49°02' W 123°22'816.6
2019-May-17 11:00N 49°08' W 123°31'816.6
2019-May-17 10:30N 49°15' W 123°39'816.7
2019-May-17 10:00N 49°21' W 123°48'816.5
2019-May-17 09:30N 49°23' W 123°60'816.6
2019-May-17 09:00N 49°25' W 124°12'916.0
2019-May-17 08:27N 49°29' W 124°25'716.6
2019-May-17 08:00N 49°34' W 124°33'816.6
2019-May-17 07:30N 49°40' W 124°42'816.6
2019-May-17 07:00N 49°46' W 124°51'816.6
2019-May-17 06:30N 49°52' W 124°60'816.7
2019-May-17 06:00N 49°58' W 125°09'714.1
2019-May-17 05:30N 50°04' W 125°15'713.5
2019-May-17 05:00N 50°09' W 125°21'612.4
2019-May-17 04:30N 50°15' W 125°23'1714.0
2019-May-17 03:18N 50°22' W 125°47'2515.5
2019-May-17 01:42N 50°30' W 126°24'516.7
2019-May-17 01:25N 50°30' W 126°31'714.4
2019-May-17 00:55N 50°34' W 126°41'815.7
2019-May-17 00:24N 50°39' W 126°50'616.5
2019-May-17 00:00N 50°43' W 126°58'816.5
2019-May-16 23:30N 50°49' W 127°09'1016.5
2019-May-16 22:53N 50°54' W 127°22'616.3
2019-May-16 22:30N 50°58' W 127°30'815.6
2019-May-16 22:00N 51°03' W 127°39'816.4
2019-May-16 21:30N 51°09' W 127°49'713.5
2019-May-16 21:00N 51°14' W 127°55'916.5
2019-May-16 20:29N 51°23' W 127°51'816.4
2019-May-16 20:00N 51°30' W 127°52'816.5
2019-May-16 19:31N 51°38' W 127°54'816.4
2019-May-16 19:01N 51°47' W 127°55'816.5
2019-May-16 18:31N 51°55' W 127°56'816.5
2019-May-16 18:00N 52°03' W 127°56'815.3
2019-May-16 17:31N 52°06' W 128°07'8 9.0
2019-May-16 16:36N 52°14' W 128°11'1216.4
2019-May-16 15:51N 52°16' W 128°30'9813.9
2019-May-16 08:47N 53°42' W 129°48'516.3
2019-May-16 08:30N 53°45' W 129°53'816.8
2019-May-16 08:00N 53°51' W 130°03'816.0
2019-May-16 07:30N 53°57' W 130°12'815.9
2019-May-16 07:00N 54°05' W 130°18'816.3
2019-May-16 06:30N 54°11' W 130°27'816.4
2019-May-16 06:00N 54°18' W 130°35'816.3
2019-May-16 05:30N 54°26' W 130°37'816.5
2019-May-16 05:00N 54°34' W 130°40'816.2
2019-May-16 04:30N 54°40' W 130°48'1016.5
2019-May-16 03:55N 54°48' W 130°58'  
2019-May-10 18:00N 58°06' W 134°54'   140 / 41013.7 8.9

Dump ship's entire track history